Time;durP1;ratioP1;P1;durP2;ratioP2;P2;SDS_P1;SDS_P2;PMS_P1;PMS_P2;Temp;Humidity;BMP_temperature;BMP_pressure;BME280_temperature;BME280_humidity;BME280_pressure;Samples;Min_cycle;Max_cycle;Signal;HPM_P1;HPM_P2
2022/06/10 00:02:22;;;;;;;11.27;4.60;;;11.40;99.90;;;;;;4971172;28;20041;-74
2022/06/10 00:04:48;;;;;;;11.20;4.35;;;11.40;99.90;;;;;;4972358;28;20038;-74
2022/06/10 00:07:14;;;;;;;9.70;4.38;;;11.40;99.90;;;;;;4988561;28;20048;-74
2022/06/10 00:09:44;;;;;;;10.57;4.68;;;11.40;99.90;;;;;;4970074;28;20788;-73
2022/06/10 00:12:15;;;;;;;12.27;5.03;;;11.40;99.90;;;;;;4985106;28;20041;-74
2022/06/10 00:14:41;;;;;;;10.50;4.47;;;11.40;99.90;;;;;;4979800;28;20046;-74
2022/06/10 00:17:41;;;;;;;12.50;4.82;;;11.40;99.90;;;;;;4983767;28;20050;-74
2022/06/10 00:20:15;;;;;;;14.52;4.68;;;11.40;99.90;;;;;;4960875;28;20046;-74
2022/06/10 00:22:40;;;;;;;8.20;4.45;;;11.30;99.90;;;;;;4968235;28;20045;-74
2022/06/10 00:25:07;;;;;;;8.75;4.60;;;11.40;99.90;;;;;;4969351;28;20042;-74
2022/06/10 00:27:33;;;;;;;15.38;4.65;;;11.40;99.90;;;;;;4971956;28;20057;-74
2022/06/10 00:29:59;;;;;;;10.35;4.38;;;11.40;99.90;;;;;;4964452;28;20042;-74
2022/06/10 00:32:25;;;;;;;8.77;4.00;;;11.40;99.90;;;;;;4969652;28;20410;-74
2022/06/10 00:35:04;;;;;;;10.18;4.97;;;11.30;99.90;;;;;;4982489;28;20033;-74
2022/06/10 00:37:33;;;;;;;10.45;4.47;;;11.30;99.90;;;;;;4984851;28;20081;-74
2022/06/10 00:39:59;;;;;;;12.73;4.40;;;11.30;99.90;;;;;;4965770;28;20033;-74
2022/06/10 00:42:25;;;;;;;12.40;5.88;;;11.30;99.90;;;;;;4988615;28;20050;-74
2022/06/10 00:44:52;;;;;;;15.85;5.55;;;11.30;99.90;;;;;;4971861;28;20508;-74
2022/06/10 00:47:38;;;;;;;15.90;5.30;;;11.30;99.90;;;;;;4990376;28;20516;-74
2022/06/10 00:50:16;;;;;;;12.60;5.00;;;11.30;99.90;;;;;;4974392;28;20034;-74
2022/06/10 00:52:48;;;;;;;13.20;5.05;;;11.30;99.90;;;;;;4974210;28;20446;-74
2022/06/10 00:55:28;;;;;;;12.05;5.15;;;11.30;99.90;;;;;;4974479;28;20196;-74
2022/06/10 00:58:06;;;;;;;12.93;4.50;;;11.20;99.90;;;;;;4989998;28;20047;-74
2022/06/10 01:00:34;;;;;;;12.50;5.15;;;11.20;99.90;;;;;;4990369;28;20175;-74
2022/06/10 01:03:00;;;;;;;13.27;5.75;;;11.20;99.90;;;;;;4986464;28;20589;-74
2022/06/10 01:05:35;;;;;;;12.70;5.50;;;11.20;99.90;;;;;;4987771;28;20049;-73
2022/06/10 01:08:09;;;;;;;8.60;5.47;;;11.20;99.90;;;;;;4988960;28;20038;-74
2022/06/10 01:11:02;;;;;;;14.73;6.50;;;11.20;99.90;;;;;;4971576;28;20394;-74
2022/06/10 01:13:43;;;;;;;;;;;11.20;99.90;;;;;;4987960;28;20153;-74
2022/06/10 01:16:15;;;;;;;9.57;5.03;;;11.20;99.90;;;;;;4988895;28;19922;-74
2022/06/10 01:19:12;;;;;;;10.25;4.90;;;11.20;99.90;;;;;;4989437;28;20030;-74
2022/06/10 01:21:59;;;;;;;13.75;4.47;;;11.20;99.90;;;;;;4982603;28;20499;-73
2022/06/10 01:24:40;;;;;;;9.75;5.30;;;11.10;99.90;;;;;;4972949;28;20438;-74
2022/06/10 01:27:52;;;;;;;11.75;4.40;;;11.20;99.90;;;;;;4970738;28;20405;-74
2022/06/10 01:30:23;;;;;;;12.48;4.80;;;11.20;99.90;;;;;;4973004;28;21541;-73
2022/06/10 01:32:56;;;;;;;10.65;4.07;;;11.20;99.90;;;;;;4984742;28;20065;-73
2022/06/10 01:35:37;;;;;;;11.27;4.25;;;11.20;99.90;;;;;;4987032;28;20050;-73
2022/06/10 01:38:32;;;;;;;13.23;4.25;;;11.20;99.90;;;;;;5004500;28;20073;-74
2022/06/10 01:41:10;;;;;;;9.15;4.30;;;11.20;99.90;;;;;;4989113;28;20042;-74
2022/06/10 01:43:44;;;;;;;9.98;3.90;;;11.30;99.90;;;;;;4986448;28;20042;-73
2022/06/10 01:46:19;;;;;;;9.60;3.92;;;11.40;99.90;;;;;;5002063;28;20478;-74
2022/06/10 01:49:04;;;;;;;6.93;3.28;;;11.40;99.90;;;;;;4990576;28;20362;-73
2022/06/10 01:51:45;;;;;;;9.35;4.03;;;11.40;99.90;;;;;;5000798;28;20047;-74
2022/06/10 01:54:38;;;;;;;10.18;3.60;;;11.50;99.90;;;;;;4988605;28;20125;-73
2022/06/10 01:57:22;;;;;;;9.55;3.72;;;11.50;99.90;;;;;;4986915;28;20033;-73
2022/06/10 02:00:01;;;;;;;9.63;3.58;;;11.50;99.90;;;;;;4971322;28;20120;-74
2022/06/10 02:02:33;;;;;;;6.25;3.47;;;11.50;99.90;;;;;;4973249;28;20038;-73
2022/06/10 02:05:13;;;;;;;5.78;3.63;;;11.50;99.90;;;;;;4986200;28;20069;-74
2022/06/10 02:07:54;;;;;;;14.48;3.85;;;11.50;99.90;;;;;;4985535;28;20046;-74
2022/06/10 02:10:29;;;;;;;12.10;3.92;;;11.50;99.90;;;;;;5002105;28;20034;-73
2022/06/10 02:13:06;;;;;;;9.32;3.58;;;11.50;99.90;;;;;;4982637;28;20049;-74
2022/06/10 02:15:40;;;;;;;7.95;3.55;;;11.50;99.90;;;;;;4984197;28;20041;-74
2022/06/10 02:18:14;;;;;;;11.32;4.00;;;11.50;99.90;;;;;;4988738;28;20058;-73
2022/06/10 02:20:52;;;;;;;14.13;3.58;;;11.50;99.90;;;;;;4988953;28;20038;-73
2022/06/10 02:23:24;;;;;;;8.93;3.88;;;11.50;99.90;;;;;;4986050;28;20503;-74
2022/06/10 02:25:56;;;;;;;7.97;3.78;;;11.50;99.90;;;;;;4968775;28;20050;-74
2022/06/10 02:28:33;;;;;;;9.13;3.17;;;11.50;99.90;;;;;;4983579;28;20042;-74
2022/06/10 02:31:11;;;;;;;7.03;3.40;;;11.60;99.90;;;;;;4985186;28;20064;-73
2022/06/10 02:33:38;;;;;;;7.15;3.30;;;11.60;99.90;;;;;;4973139;28;20037;-73
2022/06/10 02:36:30;;;;;;;8.82;3.65;;;11.50;99.90;;;;;;4938538;28;20085;-73
2022/06/10 02:39:06;;;;;;;7.80;3.40;;;11.50;99.90;;;;;;4972671;28;20049;-73
2022/06/10 02:41:45;;;;;;;13.65;4.78;;;11.50;99.90;;;;;;4983164;28;20040;-74
2022/06/10 02:44:41;;;;;;;8.45;3.85;;;11.50;99.90;;;;;;4989010;28;20041;-74
2022/06/10 02:47:29;;;;;;;6.85;3.42;;;11.50;99.90;;;;;;4973265;28;20045;-74
2022/06/10 02:49:55;;;;;;;10.15;3.72;;;11.40;99.90;;;;;;4982798;28;20149;-73
2022/06/10 02:52:29;;;;;;;5.88;3.40;;;11.40;99.90;;;;;;4985447;28;20419;-74
2022/06/10 02:54:55;;;;;;;5.95;3.90;;;11.30;99.90;;;;;;4985745;28;20117;-74
2022/06/10 03:01:11;;;;;;;9.80;4.18;;;11.30;99.90;;;;;;4972405;28;20439;-74
2022/06/10 03:03:39;;;;;;;8.23;4.03;;;11.10;99.90;;;;;;4987431;28;20307;-74
2022/06/10 03:06:28;;;;;;;8.57;4.38;;;11.00;99.90;;;;;;4973793;28;20072;-74
2022/06/10 03:12:31;;;;;;;10.27;4.05;;;11.00;99.90;;;;;;4985386;28;20046;-73
2022/06/10 03:15:25;;;;;;;9.00;4.20;;;10.90;99.90;;;;;;4987061;28;20161;-74
2022/06/10 03:18:21;;;;;;;12.68;4.88;;;10.80;99.90;;;;;;4984319;28;20543;-74
2022/06/10 03:21:16;;;;;;;10.35;4.88;;;10.80;99.90;;;;;;4979208;28;20396;-74
2022/06/10 03:24:09;;;;;;;13.10;4.93;;;10.70;99.90;;;;;;4971024;28;20038;-74
2022/06/10 03:26:52;;;;;;;14.40;4.65;;;10.70;99.90;;;;;;5071372;28;20489;-74
2022/06/10 03:29:50;;;;;;;9.90;4.47;;;10.70;99.90;;;;;;5054180;28;21435;-74
2022/06/10 03:32:43;;;;;;;9.45;4.82;;;10.60;99.90;;;;;;5053766;28;20130;-74
2022/06/10 03:35:14;;;;;;;7.85;4.35;;;10.60;99.90;;;;;;5060207;28;20048;-74
2022/06/10 03:37:41;;;;;;;10.30;5.38;;;10.60;99.90;;;;;;5046382;28;20106;-74
2022/06/10 03:40:15;;;;;;;14.77;5.10;;;10.60;99.90;;;;;;5060829;28;20032;-74
2022/06/10 03:42:47;;;;;;;10.02;4.75;;;10.60;99.90;;;;;;5057610;28;20040;-74
2022/06/10 03:45:16;;;;;;;10.15;5.22;;;10.60;99.90;;;;;;5066555;28;20410;-74
2022/06/10 03:47:42;;;;;;;13.93;4.60;;;10.60;99.90;;;;;;5065802;28;20120;-74
2022/06/10 03:50:12;;;;;;;7.35;5.07;;;10.60;99.90;;;;;;5035238;28;20127;-74
2022/06/10 03:52:40;;;;;;;8.25;4.95;;;10.60;99.90;;;;;;5068723;28;20133;-74
2022/06/10 03:55:08;;;;;;;8.32;4.90;;;10.60;99.90;;;;;;5047478;28;20036;-74
2022/06/10 03:57:34;;;;;;;9.80;4.55;;;10.70;99.90;;;;;;5061703;28;20043;-74
2022/06/10 04:00:01;;;;;;;14.20;4.82;;;10.70;99.90;;;;;;5069747;28;20070;-74
2022/06/10 04:02:26;;;;;;;11.25;4.80;;;10.70;99.90;;;;;;5062917;28;20056;-74
2022/06/10 04:04:52;;;;;;;10.15;5.40;;;10.70;99.90;;;;;;5071755;28;20036;-74
2022/06/10 04:07:19;;;;;;;13.10;5.25;;;10.80;99.90;;;;;;5052479;28;20036;-74
2022/06/10 04:09:47;;;;;;;11.80;5.28;;;10.80;99.90;;;;;;5069989;28;20115;-74
2022/06/10 04:12:13;;;;;;;9.60;5.00;;;10.80;99.90;;;;;;5054425;28;20490;-74
2022/06/10 04:14:39;;;;;;;12.50;6.00;;;10.80;99.90;;;;;;5059326;28;20089;-74
2022/06/10 04:17:05;;;;;;;18.77;5.15;;;10.80;99.90;;;;;;5039454;28;20500;-74
2022/06/10 04:19:31;;;;;;;10.57;4.90;;;10.80;99.90;;;;;;5036970;28;20041;-74
2022/06/10 04:21:57;;;;;;;10.90;5.30;;;10.90;99.90;;;;;;5050214;28;20036;-74
2022/06/10 04:24:24;;;;;;;10.38;5.22;;;10.90;99.90;;;;;;5053744;28;20398;-74
2022/06/10 04:26:50;;;;;;;7.65;4.75;;;10.90;99.90;;;;;;5049516;28;20051;-74
2022/06/10 04:29:25;;;;;;;13.38;5.18;;;10.90;99.90;;;;;;5053672;28;20060;-74
2022/06/10 04:31:54;;;;;;;10.80;5.63;;;11.00;99.90;;;;;;5062382;28;20040;-74
2022/06/10 04:34:20;;;;;;;10.82;5.32;;;11.00;99.90;;;;;;5073137;28;20032;-74
2022/06/10 04:36:46;;;;;;;11.98;5.97;;;11.10;99.90;;;;;;5040439;28;20103;-74
2022/06/10 04:39:21;;;;;;;11.57;5.32;;;11.10;99.90;;;;;;5058033;28;20296;-74
2022/06/10 04:41:46;;;;;;;10.82;5.40;;;11.20;99.90;;;;;;5047960;28;20501;-74
2022/06/10 04:44:15;;;;;;;15.68;6.03;;;11.30;99.90;;;;;;5025057;28;20041;-74
2022/06/10 04:46:45;;;;;;;13.00;6.05;;;11.30;99.90;;;;;;5037766;28;20124;-74
2022/06/10 04:49:11;;;;;;;12.25;5.93;;;11.40;99.90;;;;;;5050532;28;20037;-74
2022/06/10 04:51:45;;;;;;;14.25;6.22;;;11.40;99.90;;;;;;5036973;28;20437;-74
2022/06/10 04:54:11;;;;;;;14.88;6.15;;;11.50;99.90;;;;;;5036562;28;20041;-75
2022/06/10 04:56:39;;;;;;;12.43;6.38;;;11.60;99.90;;;;;;5039931;28;20079;-74
2022/06/10 04:59:05;;;;;;;14.25;6.07;;;11.60;99.90;;;;;;5010102;28;20406;-74
2022/06/10 05:01:31;;;;;;;12.30;6.90;;;11.70;99.90;;;;;;5051508;28;20062;-74
2022/06/10 05:03:57;;;;;;;11.85;6.40;;;11.80;99.90;;;;;;5041293;28;20036;-74
2022/06/10 05:06:23;;;;;;;16.83;6.65;;;11.80;99.90;;;;;;5033516;28;20044;-75
2022/06/10 05:08:49;;;;;;;13.77;6.20;;;11.90;99.90;;;;;;5046478;28;20368;-74
2022/06/10 05:11:15;;;;;;;14.05;6.13;;;12.10;99.90;;;;;;5058743;28;20032;-75
2022/06/10 05:13:41;;;;;;;13.73;6.88;;;12.10;99.90;;;;;;5051604;28;20495;-74
2022/06/10 05:16:07;;;;;;;11.43;6.45;;;12.20;99.90;;;;;;5058309;28;20036;-75
2022/06/10 05:18:38;;;;;;;11.82;6.63;;;12.30;99.90;;;;;;5028719;28;20040;-75
2022/06/10 05:21:04;;;;;;;13.03;6.63;;;12.40;99.90;;;;;;5044419;28;20529;-75
2022/06/10 05:23:30;;;;;;;11.55;6.18;;;12.50;99.90;;;;;;5043822;28;20102;-75
2022/06/10 05:25:56;;;;;;;10.70;6.28;;;12.50;99.90;;;;;;5024661;28;20493;-75
2022/06/10 05:28:22;;;;;;;12.65;6.18;;;12.70;99.90;;;;;;5042521;28;20563;-75
2022/06/10 05:30:49;;;;;;;12.55;5.68;;;12.70;99.90;;;;;;5038547;28;20043;-75
2022/06/10 05:33:18;;;;;;;12.32;6.32;;;12.90;99.90;;;;;;5039579;28;20037;-75
2022/06/10 05:35:44;;;;;;;8.38;5.10;;;13.00;99.90;;;;;;5040275;28;20105;-75
2022/06/10 05:38:14;;;;;;;9.23;5.40;;;13.10;99.90;;;;;;5058370;28;20584;-75
2022/06/10 05:40:52;;;;;;;14.93;5.78;;;13.20;99.90;;;;;;5057397;28;20048;-75
2022/06/10 05:43:42;;;;;;;10.60;5.65;;;13.40;99.90;;;;;;5057417;28;20095;-74
2022/06/10 05:46:11;;;;;;;11.20;5.00;;;13.50;99.90;;;;;;5054527;28;20044;-76
2022/06/10 05:48:37;;;;;;;13.98;5.22;;;13.60;99.90;;;;;;5027785;28;20047;-75
2022/06/10 05:51:03;;;;;;;11.48;5.25;;;13.90;99.90;;;;;;5040710;28;20032;-76
2022/06/10 05:53:29;;;;;;;11.15;4.57;;;14.10;99.90;;;;;;5046716;28;20474;-75
2022/06/10 05:55:55;;;;;;;9.68;4.80;;;14.30;99.90;;;;;;5023476;28;20038;-75
2022/06/10 05:58:21;;;;;;;13.27;4.93;;;14.50;99.90;;;;;;5054964;28;20581;-75
2022/06/10 06:00:47;;;;;;;12.02;5.40;;;14.50;99.90;;;;;;5056009;28;20123;-75
2022/06/10 06:03:13;;;;;;;13.52;5.25;;;14.60;99.90;;;;;;5045385;28;20075;-75
2022/06/10 06:05:40;;;;;;;14.75;5.20;;;14.70;99.90;;;;;;5026440;28;20033;-75
2022/06/10 06:08:06;;;;;;;10.18;5.30;;;14.70;99.90;;;;;;5027330;28;20037;-75
2022/06/10 06:10:32;;;;;;;12.27;5.20;;;14.80;99.90;;;;;;5053618;28;20136;-75
2022/06/10 06:12:57;;;;;;;10.55;5.38;;;14.80;99.90;;;;;;5037273;28;20478;-75
2022/06/10 06:15:24;;;;;;;17.60;5.80;;;14.80;99.90;;;;;;5030477;28;20394;-76
2022/06/10 06:17:52;;;;;;;14.38;5.00;;;14.80;99.90;;;;;;5042561;28;20580;-77
2022/06/10 06:20:21;;;;;;;11.45;5.35;;;14.80;99.90;;;;;;5035300;28;20086;-75
2022/06/10 06:22:48;;;;;;;11.63;5.35;;;14.80;99.90;;;;;;5040799;28;20043;-75
2022/06/10 06:25:18;;;;;;;11.50;5.35;;;14.80;99.90;;;;;;5036370;28;20057;-75
2022/06/10 06:27:46;;;;;;;10.50;4.90;;;14.90;99.90;;;;;;5054359;28;20053;-76
2022/06/10 06:30:34;;;;;;;14.65;5.45;;;14.90;99.90;;;;;;5026341;28;20044;-75
2022/06/10 06:33:05;;;;;;;7.45;4.75;;;14.90;99.90;;;;;;5043434;28;20056;-76
2022/06/10 06:35:34;;;;;;;13.32;5.47;;;15.10;99.90;;;;;;5049773;28;20059;-75
2022/06/10 06:38:01;;;;;;;11.60;4.68;;;15.10;99.90;;;;;;5052372;28;20062;-74
2022/06/10 06:40:27;;;;;;;12.80;5.63;;;15.10;99.90;;;;;;5017821;28;20045;-76
2022/06/10 06:42:53;;;;;;;12.77;5.18;;;15.20;99.90;;;;;;5058493;28;20032;-76
2022/06/10 06:45:21;;;;;;;11.38;5.70;;;15.10;99.90;;;;;;5020715;28;20037;-75
2022/06/10 06:47:48;;;;;;;10.55;4.78;;;15.10;99.90;;;;;;5058154;28;20058;-76
2022/06/10 06:50:19;;;;;;;14.52;5.28;;;15.20;99.90;;;;;;5026170;28;20093;-75
2022/06/10 06:52:45;;;;;;;12.38;5.38;;;15.10;99.90;;;;;;5046613;28;20099;-76
2022/06/10 06:55:11;;;;;;;15.05;4.60;;;15.10;99.90;;;;;;5018398;28;20307;-76
2022/06/10 06:57:38;;;;;;;10.32;5.05;;;15.10;99.90;;;;;;5041614;28;20786;-76
2022/06/10 07:00:06;;;;;;;11.23;5.32;;;15.10;99.90;;;;;;5046301;28;20049;-76
2022/06/10 07:02:36;;;;;;;13.50;5.07;;;15.10;99.90;;;;;;5053932;28;20037;-76
2022/06/10 07:05:06;;;;;;;11.20;5.05;;;15.10;99.90;;;;;;5038883;28;20045;-76
2022/06/10 07:07:33;;;;;;;14.52;5.15;;;15.20;99.90;;;;;;5022071;28;20051;-76
2022/06/10 07:09:59;;;;;;;12.13;5.18;;;15.40;99.90;;;;;;5052604;28;20047;-77
2022/06/10 07:12:24;;;;;;;11.07;4.88;;;15.40;99.90;;;;;;5037223;28;21011;-76
2022/06/10 07:14:51;;;;;;;14.43;6.22;;;15.50;99.90;;;;;;5055882;28;20033;-75
2022/06/10 07:17:17;;;;;;;11.25;6.00;;;15.50;99.90;;;;;;5037277;28;20049;-75
2022/06/10 07:19:44;;;;;;;12.90;6.22;;;15.40;99.90;;;;;;5021643;28;20425;-74
2022/06/10 07:22:09;;;;;;;11.88;6.07;;;15.30;99.90;;;;;;5052260;28;20045;-75
2022/06/10 07:24:35;;;;;;;10.35;5.68;;;15.30;99.90;;;;;;5017228;28;20541;-76
2022/06/10 07:27:03;;;;;;;12.05;6.25;;;15.30;99.90;;;;;;5046507;28;20048;-76
2022/06/10 07:29:30;;;;;;;12.05;5.88;;;15.30;99.90;;;;;;5020650;28;20115;-75
2022/06/10 07:31:56;;;;;;;14.38;6.07;;;15.40;99.90;;;;;;5055755;28;20037;-76
2022/06/10 07:34:22;;;;;;;14.70;6.80;;;15.40;99.90;;;;;;5032170;28;20436;-75
2022/06/10 07:36:47;;;;;;;12.30;6.93;;;15.40;99.90;;;;;;5019159;28;20052;-76
2022/06/10 07:39:13;;;;;;;10.45;5.72;;;15.40;99.90;;;;;;5050910;28;20057;-75
2022/06/10 07:42:00;;;;;;;14.43;6.90;;;15.50;99.90;;;;;;5051544;28;20037;-76
2022/06/10 07:44:34;;;;;;;14.82;6.47;;;15.60;99.90;;;;;;5038766;28;20515;-75
2022/06/10 07:47:02;;;;;;;9.88;6.82;;;15.60;99.90;;;;;;5038456;28;20041;-75
2022/06/10 07:49:29;;;;;;;11.82;6.28;;;15.70;99.90;;;;;;5036943;28;20127;-76
2022/06/10 07:51:54;;;;;;;8.90;6.88;;;15.80;99.90;;;;;;5025550;28;20049;-76
2022/06/10 07:54:20;;;;;;;13.18;6.45;;;15.90;99.90;;;;;;5037314;28;20041;-76
2022/06/10 07:56:46;;;;;;;13.00;6.35;;;16.00;99.90;;;;;;5041976;28;20040;-75
2022/06/10 07:59:14;;;;;;;11.43;6.72;;;15.90;99.90;;;;;;5015688;28;20042;-76
2022/06/10 08:01:40;;;;;;;12.90;6.80;;;16.00;99.90;;;;;;5047507;28;20084;-75
2022/06/10 08:04:08;;;;;;;12.38;6.30;;;16.10;99.90;;;;;;5021194;28;20092;-75
2022/06/10 08:06:36;;;;;;;11.23;7.00;;;16.20;99.90;;;;;;5028628;28;20064;-75
2022/06/10 08:09:03;;;;;;;12.80;6.22;;;16.30;99.90;;;;;;5036582;28;20045;-75
2022/06/10 08:11:29;;;;;;;8.20;6.15;;;16.40;99.90;;;;;;5042872;28;20113;-76
2022/06/10 08:13:55;;;;;;;12.75;6.80;;;16.50;99.90;;;;;;5032972;28;20029;-76
2022/06/10 08:16:23;;;;;;;11.95;6.03;;;16.60;99.90;;;;;;5040195;28;20036;-76
2022/06/10 08:18:50;;;;;;;16.65;6.28;;;16.70;99.90;;;;;;5038325;28;20040;-75
2022/06/10 08:24:01;;;;;;;13.10;6.20;;;16.80;99.90;;;;;;5032989;28;20053;-76
2022/06/10 08:26:30;;;;;;;13.80;6.05;;;16.80;99.90;;;;;;5022571;28;20041;-75
2022/06/10 08:28:58;;;;;;;14.82;5.75;;;16.70;99.90;;;;;;5038878;28;20336;-75
2022/06/10 08:31:24;;;;;;;15.93;5.65;;;16.80;99.90;;;;;;5048996;28;20037;-75
2022/06/10 08:33:50;;;;;;;12.05;6.28;;;16.90;99.90;;;;;;5038010;28;20432;-75
2022/06/10 08:36:16;;;;;;;15.25;6.25;;;17.00;99.90;;;;;;5035028;28;20044;-75
2022/06/10 08:38:42;;;;;;;12.70;5.43;;;17.00;99.90;;;;;;5017870;28;20045;-75
2022/06/10 08:41:46;;;;;;;10.73;5.72;;;17.10;99.90;;;;;;5034727;28;20493;-75
2022/06/10 08:44:43;;;;;;;11.55;5.28;;;17.30;99.90;;;;;;5034952;28;20086;-75
2022/06/10 08:47:28;;;;;;;8.30;4.70;;;17.40;99.90;;;;;;5028434;28;20418;-75
2022/06/10 08:50:12;;;;;;;11.15;5.53;;;17.40;99.90;;;;;;5049929;28;20052;-76
2022/06/10 08:53:02;;;;;;;12.77;5.63;;;17.50;99.90;;;;;;5051928;28;20126;-76
2022/06/10 08:55:49;;;;;;;11.30;5.03;;;17.50;99.90;;;;;;5055605;28;20513;-75
2022/06/10 08:58:27;;;;;;;11.20;5.18;;;17.60;99.90;;;;;;5040158;28;20037;-75
2022/06/10 09:00:58;;;;;;;12.25;4.72;;;17.60;99.90;;;;;;5056152;28;20130;-75
2022/06/10 09:03:36;;;;;;;10.48;5.15;;;17.70;99.90;;;;;;5040078;28;20514;-75
2022/06/10 09:06:08;;;;;;;7.72;4.78;;;17.80;99.90;;;;;;5023970;28;20121;-75
2022/06/10 09:08:42;;;;;;;13.32;4.80;;;17.80;99.90;;;;;;5063641;28;20641;-76
2022/06/10 09:11:40;;;;;;;11.35;5.53;;;17.80;99.90;;;;;;5054556;28;20041;-75
2022/06/10 09:14:19;;;;;;;15.50;5.25;;;17.80;99.90;;;;;;5023564;28;20030;-75
2022/06/10 09:17:04;;;;;;;9.90;5.63;;;17.70;99.90;;;;;;5021191;28;20072;-75
2022/06/10 09:19:58;;;;;;;13.68;5.05;;;17.70;99.90;;;;;;5035725;28;20056;-75
2022/06/10 09:22:46;;;;;;;12.35;5.60;;;17.80;99.90;;;;;;5036019;28;20032;-75
2022/06/10 09:25:25;;;;;;;7.80;5.10;;;17.80;99.90;;;;;;5036812;28;20072;-75
2022/06/10 09:27:56;;;;;;;15.75;5.68;;;17.90;99.90;;;;;;5036718;28;20466;-76
2022/06/10 09:30:33;;;;;;;12.27;6.50;;;17.90;99.90;;;;;;5038600;28;20116;-76
2022/06/10 09:33:21;;;;;;;12.23;5.50;;;17.80;99.90;;;;;;5020819;28;20037;-75
2022/06/10 09:36:20;;;;;;;10.48;5.63;;;17.70;99.90;;;;;;5035701;28;20045;-76
2022/06/10 09:38:59;;;;;;;11.35;5.30;;;17.60;99.90;;;;;;5021014;28;20049;-75
2022/06/10 09:41:35;;;;;;;13.88;5.80;;;17.60;99.90;;;;;;5023566;28;20541;-76
2022/06/10 09:44:20;;;;;;;9.25;5.13;;;17.60;99.90;;;;;;5036460;28;20033;-76
2022/06/10 09:47:00;;;;;;;11.15;5.07;;;17.60;99.90;;;;;;5022929;28;20045;-75
2022/06/10 09:50:04;;;;;;;16.25;5.40;;;17.60;99.90;;;;;;5019290;28;20051;-76
2022/06/10 09:52:51;;;;;;;9.80;4.65;;;17.50;99.90;;;;;;5035067;28;20041;-75
2022/06/10 09:55:24;;;;;;;13.07;5.72;;;17.40;99.90;;;;;;5037639;28;20079;-76
2022/06/10 09:58:30;;;;;;;10.40;4.63;;;17.50;99.90;;;;;;5042110;28;20060;-75
2022/06/10 10:01:08;;;;;;;8.65;4.50;;;17.50;99.90;;;;;;5024177;28;20056;-75
2022/06/10 10:04:00;;;;;;;12.45;4.80;;;17.50;99.90;;;;;;5025925;28;20068;-75
2022/06/10 10:06:32;;;;;;;14.68;4.65;;;17.50;99.90;;;;;;5039512;28;20032;-76
2022/06/10 10:09:12;;;;;;;16.17;5.18;;;17.60;99.90;;;;;;5026140;28;20052;-76
2022/06/10 10:12:04;;;;;;;9.20;4.20;;;17.70;99.90;;;;;;5042052;28;20066;-75
2022/06/10 10:14:36;;;;;;;11.83;4.90;;;17.70;99.90;;;;;;5040245;28;20041;-76
2022/06/10 10:17:11;;;;;;;11.50;4.43;;;17.70;99.90;;;;;;5025527;28;20043;-76
2022/06/10 10:20:26;;;;;;;8.98;4.45;;;17.60;99.90;;;;;;5042322;28;20852;-75
2022/06/10 10:23:33;;;;;;;7.53;3.92;;;17.60;99.90;;;;;;5024825;28;20044;-75
2022/06/10 10:26:00;;;;;;;11.57;4.10;;;17.60;99.90;;;;;;5029905;28;20041;-75
2022/06/10 10:28:33;;;;;;;9.05;4.00;;;17.70;99.90;;;;;;5045366;28;20045;-76
2022/06/10 10:31:24;;;;;;;10.52;3.80;;;17.90;99.90;;;;;;5025666;28;20068;-76
2022/06/10 10:33:51;;;;;;;11.68;3.72;;;18.20;99.90;;;;;;5044318;28;20041;-75
2022/06/10 10:36:47;;;;;;;7.20;4.03;;;18.50;99.90;;;;;;5056452;28;20045;-75
2022/06/10 10:39:35;;;;;;;11.90;3.92;;;18.80;99.90;;;;;;5010081;28;20092;-74
2022/06/10 10:42:28;;;;;;;6.68;3.97;;;19.00;99.90;;;;;;5047732;28;20052;-75
2022/06/10 10:45:02;;;;;;;11.30;5.15;;;19.20;99.90;;;;;;5044960;28;20687;-75
2022/06/10 10:47:28;;;;;;;10.80;5.15;;;19.40;99.90;;;;;;5032382;28;20520;-75
2022/06/10 10:50:05;;;;;;;8.00;4.55;;;19.50;99.90;;;;;;5027529;28;20068;-75
2022/06/10 10:52:34;;;;;;;11.07;4.50;;;19.70;99.90;;;;;;5046460;28;20049;-75
2022/06/10 10:55:20;;;;;;;10.43;4.38;;;19.90;99.90;;;;;;5028808;28;20037;-76
2022/06/10 10:58:06;;;;;;;10.60;4.07;;;20.00;99.90;;;;;;5037996;28;20072;-75
2022/06/10 11:00:41;;;;;;;8.35;3.85;;;20.10;99.90;;;;;;5045239;28;20045;-76
2022/06/10 11:03:45;;;;;;;9.40;4.45;;;20.40;99.90;;;;;;5051760;28;20052;-74
2022/06/10 11:06:33;;;;;;;11.50;4.72;;;20.70;99.90;;;;;;5042423;28;20440;-75
2022/06/10 11:09:14;;;;;;;9.65;4.25;;;20.80;99.90;;;;;;5035083;28;20086;-75
2022/06/10 11:11:41;;;;;;;9.07;4.40;;;21.00;99.90;;;;;;5031128;28;20085;-74
2022/06/10 11:14:28;;;;;;;12.57;4.90;;;21.20;99.90;;;;;;5035853;28;20094;-75
2022/06/10 11:17:02;;;;;;;11.48;5.00;;;21.20;99.90;;;;;;5051896;28;20048;-74
2022/06/10 11:19:34;;;;;;;10.70;4.90;;;21.30;99.90;;;;;;5033869;28;20040;-74
2022/06/10 11:22:23;;;;;;;11.68;5.43;;;21.30;99.90;;;;;;5035524;28;20029;-75
2022/06/10 11:25:01;;;;;;;8.85;4.72;;;21.30;99.90;;;;;;5034803;28;20083;-74
2022/06/10 11:27:31;;;;;;;11.05;6.22;;;21.20;99.90;;;;;;5033868;28;20037;-74
2022/06/10 11:30:15;;;;;;;7.65;4.07;;;21.10;99.90;;;;;;5033685;28;20041;-75
2022/06/10 11:32:47;;;;;;;10.82;4.43;;;20.90;99.90;;;;;;5019189;28;20041;-75
2022/06/10 11:35:32;;;;;;;8.02;4.43;;;20.90;99.90;;;;;;5033151;28;20047;-74
2022/06/10 11:38:09;;;;;;;11.95;4.85;;;20.80;99.90;;;;;;5041365;28;20052;-74
2022/06/10 11:40:42;;;;;;;7.63;3.60;;;20.70;99.90;;;;;;5022276;28;20042;-75
2022/06/10 11:43:31;;;;;;;12.40;3.97;;;20.60;99.90;;;;;;5039615;28;20033;-75
2022/06/10 11:46:18;;;;;;;9.18;3.85;;;20.90;99.90;;;;;;5054739;28;20045;-75
2022/06/10 11:49:01;;;;;;;8.32;3.58;;;21.30;99.90;;;;;;5044832;28;20052;-74
2022/06/10 11:51:38;;;;;;;12.88;3.83;;;21.60;99.90;;;;;;5050777;28;20033;-74
2022/06/10 11:54:51;;;;;;;10.23;3.60;;;21.80;99.90;;;;;;5026235;28;20037;-75
2022/06/10 12:00:33;;;;;;;;;;;22.00;99.90;;;;;;5054407;28;20052;-74
2022/06/10 12:03:01;;;;;;;7.80;3.97;;;22.00;99.90;;;;;;5046113;28;20277;-74
2022/06/10 12:05:35;;;;;;;10.07;3.65;;;22.00;99.90;;;;;;5068073;28;20140;-74
2022/06/10 12:08:23;;;;;;;8.40;3.45;;;21.90;99.90;;;;;;5052409;28;20032;-75
2022/06/10 12:11:00;;;;;;;11.35;4.10;;;21.90;99.90;;;;;;5067680;28;20096;-73
2022/06/10 12:13:39;;;;;;;10.73;3.88;;;21.70;99.90;;;;;;5035334;28;20029;-74
2022/06/10 12:16:07;;;;;;;9.23;3.92;;;21.60;99.90;;;;;;5039446;28;20063;-74
2022/06/10 12:18:40;;;;;;;10.23;3.75;;;21.50;99.90;;;;;;5052902;28;20040;-74
2022/06/10 12:21:06;;;;;;;10.77;3.10;;;21.30;99.90;;;;;;5037410;28;20057;-74
2022/06/10 12:23:37;;;;;;;7.03;3.13;;;21.20;99.90;;;;;;5050204;28;20040;-75
2022/06/10 12:26:14;;;;;;;9.02;3.60;;;21.10;99.90;;;;;;5034316;28;20045;-74
2022/06/10 12:28:53;;;;;;;10.57;3.38;;;21.00;99.90;;;;;;5053225;28;20116;-75
2022/06/10 12:31:32;;;;;;;6.13;3.40;;;20.90;99.90;;;;;;5053706;28;20375;-75
2022/06/10 12:34:08;;;;;;;5.88;2.85;;;20.80;99.90;;;;;;5036598;28;20036;-75
2022/06/10 12:36:39;;;;;;;6.22;3.10;;;20.70;99.90;;;;;;5055117;28;20079;-75
2022/06/10 12:39:20;;;;;;;11.23;3.50;;;20.70;99.90;;;;;;5049895;28;20045;-74
2022/06/10 12:41:52;;;;;;;8.45;3.22;;;20.70;99.90;;;;;;5038971;28;20500;-76
2022/06/10 12:44:30;;;;;;;8.93;3.47;;;20.80;99.90;;;;;;5032674;28;20132;-75
2022/06/10 12:47:03;;;;;;;11.07;3.45;;;21.00;99.90;;;;;;5016609;28;20171;-75
2022/06/10 12:49:41;;;;;;;12.93;3.20;;;21.20;99.90;;;;;;5046240;28;20160;-75
2022/06/10 12:52:23;;;;;;;9.45;2.88;;;21.20;99.90;;;;;;5033769;28;20040;-75
2022/06/10 12:55:29;;;;;;;6.15;2.80;;;21.30;99.90;;;;;;5035527;28;20555;-75
2022/06/10 12:57:55;;;;;;;6.82;3.13;;;21.30;99.90;;;;;;5015698;28;20053;-75
2022/06/10 13:00:22;;;;;;;7.90;3.17;;;21.30;99.90;;;;;;5050473;28;20056;-75
2022/06/10 13:02:53;;;;;;;7.28;3.50;;;21.20;99.90;;;;;;5059212;28;20362;-75
2022/06/10 13:05:31;;;;;;;9.07;3.35;;;21.00;99.90;;;;;;5053457;28;20379;-74
2022/06/10 13:07:58;;;;;;;5.28;2.83;;;21.00;99.90;;;;;;5039478;28;20041;-75
2022/06/10 13:10:30;;;;;;;12.15;3.60;;;20.90;99.90;;;;;;5031438;28;20035;-75
2022/06/10 13:13:22;;;;;;;8.77;4.00;;;21.00;99.90;;;;;;5061578;28;20687;-75
2022/06/10 13:15:48;;;;;;;8.25;3.28;;;21.20;99.90;;;;;;5050122;28;20240;-75
2022/06/10 13:18:17;;;;;;;6.60;3.03;;;21.30;99.90;;;;;;5038096;28;20049;-75
2022/06/10 13:20:48;;;;;;;8.52;3.08;;;21.50;99.90;;;;;;5051826;28;20066;-75
2022/06/10 13:23:21;;;;;;;10.10;2.92;;;21.60;99.90;;;;;;5045370;28;20045;-74
2022/06/10 13:25:50;;;;;;;7.93;3.00;;;21.60;99.90;;;;;;5028362;28;20061;-75
2022/06/10 13:28:23;;;;;;;7.40;3.40;;;21.60;99.90;;;;;;5046556;28;20103;-75
2022/06/10 13:30:51;;;;;;;6.20;3.33;;;21.70;99.90;;;;;;5040534;28;20190;-75
2022/06/10 13:33:18;;;;;;;7.07;2.97;;;21.70;99.90;;;;;;5030506;28;20589;-75